الصفحة الرئيسية
METAR-TAF:

METAR-TAF

مطار :

شيان, جمهورية الصين الشعبية

مطار شيان شيانيانغ الدولي

دائرة عرض: 34-26N, خط طول: 108-45E, ارتفاع: 479 متر

مراقبة الطقس الحالي

تاريخ ووقت الإصدار 55 دقيقة قبل الساعة 15:00UTC
ريح 12 عقدة من الشمال الشرقي
درجة الحرارة 16°درجة مئوية
الرطوبة 88%
ضغط 1014 hPa
الرؤية: 4000 متر
غيوم متفرقة على ارتفاع 2600 قدم
غشاء

METAR: ZLXY 221500Z 05006MPS 4000 BR SCT026 16/14 Q1014 NOSIG

زمن: 23:55 (15:55 UTC)

توقعات

تاريخ ووقت الإصدار 6ساعات و 47 دقيقة قبل الساعة 09:08UTC
التوقعات صالحة من22 الساعة 12 UTC إلى 23 الساعة 12 UTC
ريح 8 عقدة من الشرق/الشمال الشرقي تتزايد حتى 17 عقدة
الرؤية: 2000 متر
غيوم متفرقة على ارتفاع 4000 قدم
ملبد بالغيوم على ارتفاع 5000 قدم
غشاء

TAF: ZLXY 220908Z 2212/2312 06004G09MPS 2000 BR SCT040 OVC050 TX23/2307Z TN14/2222Z

أرصاد الطقس والتوقعات من أكثر من 4000 مطار (تقارير الطقس للمطار METAR والتنبؤ بالطقس بالمطارTAF).

المحطات المتاحة هي النقط الصفراء والحمراء على الخريطة.

حرك المؤشر فوق النقطة لمعرفة اسم المحطة.

ثم انقر لمعرفة أرصاد وتوقعات الطقس.

لتغيير الخارطة: اضغط على الأزرار الخضراء مع رمز الصليب الأسود للتكبير. على الزر الأخضر مع شرطة للتصغير، أو على الأسهم الخضراء للخرائط المجاورة.


METAR-TAF: